Current Weather

Phoenix Sky Harbor Intl

Phoenix, Arizona (KPHX)

Report from: Wednesday, May 29, 2024 12:51 AM MST
Current time: Wednesday, May 29, 2024 1:18 AM MST

Nearby weather – Weather history – Daily summaries
Weather forecast

Temperature30.0°C (86.0°F)
Heat index28.1°C (82.6°F)
Dew point-3.3°C (26.1°F)
Winds 3 kts (1.5 m/s, 3.5 mph) Southwest (230°)
Visibility10 mi. (16.1 km)
Clouds Scattered clouds 14,000 ft. (4,267 m)
Ceiling: Broken clouds 25,000 ft. (7,620 m)
Altimeter29.82 in.Hg (1010 mB)
Relative humidity11 %
Density altitude1,983 ft. (604 m)
Sea-level pressure100.8 kPa (1008 mB, 29.76 in.Hg)
Remarks Automated weather observing station with precipitation discriminator
Flight conditions Visual Meteorological Conditions
Raw dataKPHX 290751Z 23003KT 10SM SCT140 BKN250 30/M03 A2982 RMK AO2 SLP078 T03001033
An error has occurred. This application may no longer respond until reloaded. Reload 🗙